sensor_id;sensor_type;location;lat;lon;timestamp;temperature;humidity
13322;DHT22;6730;46.248;6.930;2024-03-08T00:00:14;3.80;99.90
13322;DHT22;6730;46.248;6.930;2024-03-08T00:02:41;3.80;99.90
13322;DHT22;6730;46.248;6.930;2024-03-08T00:05:08;3.70;99.90
13322;DHT22;6730;46.248;6.930;2024-03-08T00:07:41;3.70;99.90
13322;DHT22;6730;46.248;6.930;2024-03-08T00:10:09;3.80;99.90
13322;DHT22;6730;46.248;6.930;2024-03-08T00:12:40;3.80;99.90
13322;DHT22;6730;46.248;6.930;2024-03-08T00:15:17;3.90;99.90
13322;DHT22;6730;46.248;6.930;2024-03-08T00:17:44;4.00;99.90
13322;DHT22;6730;46.248;6.930;2024-03-08T00:20:10;4.00;99.90
13322;DHT22;6730;46.248;6.930;2024-03-08T00:22:36;3.80;99.90
13322;DHT22;6730;46.248;6.930;2024-03-08T00:25:03;3.80;99.90
13322;DHT22;6730;46.248;6.930;2024-03-08T00:27:29;4.00;99.90
13322;DHT22;6730;46.248;6.930;2024-03-08T00:29:56;4.10;99.90
13322;DHT22;6730;46.248;6.930;2024-03-08T00:32:22;4.10;99.90
13322;DHT22;6730;46.248;6.930;2024-03-08T00:34:50;3.80;99.90
13322;DHT22;6730;46.248;6.930;2024-03-08T00:37:20;3.70;99.90
13322;DHT22;6730;46.248;6.930;2024-03-08T00:39:47;3.80;99.90
13322;DHT22;6730;46.248;6.930;2024-03-08T00:42:13;3.80;99.90
13322;DHT22;6730;46.248;6.930;2024-03-08T00:44:39;3.90;99.90
13322;DHT22;6730;46.248;6.930;2024-03-08T00:47:05;4.00;99.90
13322;DHT22;6730;46.248;6.930;2024-03-08T00:49:31;4.00;99.90
13322;DHT22;6730;46.248;6.930;2024-03-08T00:51:56;4.10;99.90
13322;DHT22;6730;46.248;6.930;2024-03-08T00:54:22;4.30;99.90
13322;DHT22;6730;46.248;6.930;2024-03-08T00:56:48;4.50;99.90
13322;DHT22;6730;46.248;6.930;2024-03-08T00:59:13;4.30;99.90
13322;DHT22;6730;46.248;6.930;2024-03-08T01:01:42;4.40;99.90
13322;DHT22;6730;46.248;6.930;2024-03-08T01:04:09;4.30;99.90
13322;DHT22;6730;46.248;6.930;2024-03-08T01:06:35;4.10;99.90
13322;DHT22;6730;46.248;6.930;2024-03-08T01:09:01;4.00;99.90
13322;DHT22;6730;46.248;6.930;2024-03-08T01:11:26;4.00;99.90
13322;DHT22;6730;46.248;6.930;2024-03-08T01:13:53;4.20;99.90
13322;DHT22;6730;46.248;6.930;2024-03-08T01:16:19;4.30;99.90
13322;DHT22;6730;46.248;6.930;2024-03-08T01:18:47;4.60;99.90
13322;DHT22;6730;46.248;6.930;2024-03-08T01:21:13;4.50;99.90
13322;DHT22;6730;46.248;6.930;2024-03-08T01:23:39;4.10;99.90
13322;DHT22;6730;46.248;6.930;2024-03-08T01:26:04;4.30;99.90
13322;DHT22;6730;46.248;6.930;2024-03-08T01:28:30;4.20;99.90
13322;DHT22;6730;46.248;6.930;2024-03-08T01:30:57;4.00;99.90
13322;DHT22;6730;46.248;6.930;2024-03-08T01:33:24;3.70;99.90
13322;DHT22;6730;46.248;6.930;2024-03-08T01:35:51;3.50;99.90
13322;DHT22;6730;46.248;6.930;2024-03-08T01:38:18;3.40;99.90
13322;DHT22;6730;46.248;6.930;2024-03-08T01:40:44;3.30;99.90
13322;DHT22;6730;46.248;6.930;2024-03-08T01:43:26;3.30;99.90
13322;DHT22;6730;46.248;6.930;2024-03-08T01:45:58;3.30;99.90
13322;DHT22;6730;46.248;6.930;2024-03-08T01:48:30;3.40;99.90
13322;DHT22;6730;46.248;6.930;2024-03-08T01:50:57;3.50;99.90
13322;DHT22;6730;46.248;6.930;2024-03-08T01:53:24;3.50;99.90
13322;DHT22;6730;46.248;6.930;2024-03-08T01:55:56;3.50;99.90
13322;DHT22;6730;46.248;6.930;2024-03-08T01:58:23;3.60;99.90
13322;DHT22;6730;46.248;6.930;2024-03-08T02:00:49;3.60;99.90
13322;DHT22;6730;46.248;6.930;2024-03-08T02:03:16;3.70;99.90
13322;DHT22;6730;46.248;6.930;2024-03-08T02:05:41;3.80;99.90
13322;DHT22;6730;46.248;6.930;2024-03-08T02:08:08;3.80;99.90
13322;DHT22;6730;46.248;6.930;2024-03-08T02:10:38;3.60;99.90
13322;DHT22;6730;46.248;6.930;2024-03-08T02:13:04;3.60;99.90
13322;DHT22;6730;46.248;6.930;2024-03-08T02:15:58;3.50;99.90
13322;DHT22;6730;46.248;6.930;2024-03-08T02:18:28;3.50;99.90
13322;DHT22;6730;46.248;6.930;2024-03-08T02:21:01;3.40;99.90
13322;DHT22;6730;46.248;6.930;2024-03-08T02:23:30;3.30;99.90
13322;DHT22;6730;46.248;6.930;2024-03-08T02:25:57;3.40;99.90
13322;DHT22;6730;46.248;6.930;2024-03-08T02:28:23;3.60;99.90
13322;DHT22;6730;46.248;6.930;2024-03-08T02:30:50;3.60;99.90
13322;DHT22;6730;46.248;6.930;2024-03-08T02:33:17;3.60;99.90
13322;DHT22;6730;46.248;6.930;2024-03-08T02:35:47;3.60;99.90
13322;DHT22;6730;46.248;6.930;2024-03-08T02:38:13;3.80;99.90
13322;DHT22;6730;46.248;6.930;2024-03-08T02:40:43;3.80;99.90
13322;DHT22;6730;46.248;6.930;2024-03-08T02:43:09;3.70;99.90
13322;DHT22;6730;46.248;6.930;2024-03-08T02:45:35;3.70;99.90
13322;DHT22;6730;46.248;6.930;2024-03-08T02:48:01;3.90;99.90
13322;DHT22;6730;46.248;6.930;2024-03-08T02:50:27;3.70;99.90
13322;DHT22;6730;46.248;6.930;2024-03-08T02:52:52;3.40;99.90
13322;DHT22;6730;46.248;6.930;2024-03-08T02:55:18;3.30;99.90
13322;DHT22;6730;46.248;6.930;2024-03-08T02:57:45;3.20;99.90
13322;DHT22;6730;46.248;6.930;2024-03-08T03:00:13;3.40;99.90
13322;DHT22;6730;46.248;6.930;2024-03-08T03:02:39;3.50;99.90
13322;DHT22;6730;46.248;6.930;2024-03-08T03:05:05;3.50;99.90
13322;DHT22;6730;46.248;6.930;2024-03-08T03:07:32;3.50;99.90
13322;DHT22;6730;46.248;6.930;2024-03-08T03:10:01;3.50;99.90
13322;DHT22;6730;46.248;6.930;2024-03-08T03:12:31;3.30;99.90
13322;DHT22;6730;46.248;6.930;2024-03-08T03:14:57;3.20;99.90
13322;DHT22;6730;46.248;6.930;2024-03-08T03:17:26;3.10;99.90
13322;DHT22;6730;46.248;6.930;2024-03-08T03:19:52;2.90;99.90
13322;DHT22;6730;46.248;6.930;2024-03-08T03:22:19;2.90;99.90
13322;DHT22;6730;46.248;6.930;2024-03-08T03:24:45;3.00;99.90
13322;DHT22;6730;46.248;6.930;2024-03-08T03:27:12;3.00;99.90
13322;DHT22;6730;46.248;6.930;2024-03-08T03:29:42;3.00;99.90
13322;DHT22;6730;46.248;6.930;2024-03-08T03:32:11;3.00;99.90
13322;DHT22;6730;46.248;6.930;2024-03-08T03:34:37;3.10;99.90
13322;DHT22;6730;46.248;6.930;2024-03-08T03:37:04;3.10;99.90
13322;DHT22;6730;46.248;6.930;2024-03-08T03:39:30;3.00;99.90
13322;DHT22;6730;46.248;6.930;2024-03-08T03:42:00;3.10;99.90
13322;DHT22;6730;46.248;6.930;2024-03-08T03:44:28;3.10;99.90
13322;DHT22;6730;46.248;6.930;2024-03-08T03:46:53;3.10;99.90
13322;DHT22;6730;46.248;6.930;2024-03-08T03:49:19;3.20;99.90
13322;DHT22;6730;46.248;6.930;2024-03-08T03:51:45;3.10;99.90
13322;DHT22;6730;46.248;6.930;2024-03-08T03:54:12;3.10;99.90
13322;DHT22;6730;46.248;6.930;2024-03-08T03:56:38;3.30;99.90
13322;DHT22;6730;46.248;6.930;2024-03-08T03:59:05;3.40;99.90
13322;DHT22;6730;46.248;6.930;2024-03-08T04:01:32;3.50;99.90
13322;DHT22;6730;46.248;6.930;2024-03-08T04:03:58;3.20;99.90
13322;DHT22;6730;46.248;6.930;2024-03-08T04:06:24;3.00;99.90
13322;DHT22;6730;46.248;6.930;2024-03-08T04:08:49;2.90;99.90
13322;DHT22;6730;46.248;6.930;2024-03-08T04:11:15;2.90;99.90
13322;DHT22;6730;46.248;6.930;2024-03-08T04:13:49;2.80;99.90
13322;DHT22;6730;46.248;6.930;2024-03-08T04:16:15;2.70;99.90
13322;DHT22;6730;46.248;6.930;2024-03-08T04:18:41;2.60;99.90
13322;DHT22;6730;46.248;6.930;2024-03-08T04:21:09;2.70;99.90
13322;DHT22;6730;46.248;6.930;2024-03-08T04:23:38;2.90;99.90
13322;DHT22;6730;46.248;6.930;2024-03-08T04:26:04;3.10;99.90
13322;DHT22;6730;46.248;6.930;2024-03-08T04:28:34;3.10;99.90
13322;DHT22;6730;46.248;6.930;2024-03-08T04:31:00;2.90;99.90
13322;DHT22;6730;46.248;6.930;2024-03-08T04:33:28;2.80;99.90
13322;DHT22;6730;46.248;6.930;2024-03-08T04:35:54;2.60;99.90
13322;DHT22;6730;46.248;6.930;2024-03-08T04:38:20;2.50;99.90
13322;DHT22;6730;46.248;6.930;2024-03-08T04:40:46;2.60;99.90
13322;DHT22;6730;46.248;6.930;2024-03-08T04:43:11;2.70;99.90
13322;DHT22;6730;46.248;6.930;2024-03-08T04:45:37;2.50;99.90
13322;DHT22;6730;46.248;6.930;2024-03-08T04:48:06;2.50;99.90
13322;DHT22;6730;46.248;6.930;2024-03-08T04:50:33;2.60;99.90
13322;DHT22;6730;46.248;6.930;2024-03-08T04:52:59;2.90;99.90
13322;DHT22;6730;46.248;6.930;2024-03-08T04:55:25;2.90;99.90
13322;DHT22;6730;46.248;6.930;2024-03-08T04:57:51;2.80;99.90
13322;DHT22;6730;46.248;6.930;2024-03-08T05:00:17;2.70;99.90
13322;DHT22;6730;46.248;6.930;2024-03-08T05:02:43;2.70;99.90
13322;DHT22;6730;46.248;6.930;2024-03-08T05:05:09;2.70;99.90
13322;DHT22;6730;46.248;6.930;2024-03-08T05:07:38;2.70;99.90
13322;DHT22;6730;46.248;6.930;2024-03-08T05:10:05;2.60;99.90
13322;DHT22;6730;46.248;6.930;2024-03-08T05:12:32;2.60;99.90
13322;DHT22;6730;46.248;6.930;2024-03-08T05:15:01;2.60;99.90
13322;DHT22;6730;46.248;6.930;2024-03-08T05:17:26;2.60;99.90
13322;DHT22;6730;46.248;6.930;2024-03-08T05:19:53;2.50;99.90
13322;DHT22;6730;46.248;6.930;2024-03-08T05:22:19;2.40;99.90
13322;DHT22;6730;46.248;6.930;2024-03-08T05:24:44;2.50;99.90
13322;DHT22;6730;46.248;6.930;2024-03-08T05:27:10;2.50;99.90
13322;DHT22;6730;46.248;6.930;2024-03-08T05:29:36;2.60;99.90
13322;DHT22;6730;46.248;6.930;2024-03-08T05:32:02;2.50;99.90
13322;DHT22;6730;46.248;6.930;2024-03-08T05:34:29;2.40;99.90
13322;DHT22;6730;46.248;6.930;2024-03-08T05:36:55;2.40;99.90
13322;DHT22;6730;46.248;6.930;2024-03-08T05:39:24;2.50;99.90
13322;DHT22;6730;46.248;6.930;2024-03-08T05:41:50;2.60;99.90
13322;DHT22;6730;46.248;6.930;2024-03-08T05:44:16;2.70;99.90
13322;DHT22;6730;46.248;6.930;2024-03-08T05:46:45;2.70;99.90
13322;DHT22;6730;46.248;6.930;2024-03-08T05:49:14;2.80;99.90
13322;DHT22;6730;46.248;6.930;2024-03-08T05:51:40;2.60;99.90
13322;DHT22;6730;46.248;6.930;2024-03-08T05:54:10;2.70;99.90
13322;DHT22;6730;46.248;6.930;2024-03-08T05:56:37;2.60;99.90
13322;DHT22;6730;46.248;6.930;2024-03-08T05:59:03;2.70;99.90
13322;DHT22;6730;46.248;6.930;2024-03-08T06:01:29;2.70;99.90
13322;DHT22;6730;46.248;6.930;2024-03-08T06:03:56;2.60;99.90
13322;DHT22;6730;46.248;6.930;2024-03-08T06:06:23;2.50;99.90
13322;DHT22;6730;46.248;6.930;2024-03-08T06:08:49;2.50;99.90
13322;DHT22;6730;46.248;6.930;2024-03-08T06:11:16;2.60;99.90
13322;DHT22;6730;46.248;6.930;2024-03-08T06:13:46;2.60;99.90
13322;DHT22;6730;46.248;6.930;2024-03-08T06:16:12;2.50;99.90
13322;DHT22;6730;46.248;6.930;2024-03-08T06:18:38;2.50;99.90
13322;DHT22;6730;46.248;6.930;2024-03-08T06:21:08;2.50;99.90
13322;DHT22;6730;46.248;6.930;2024-03-08T06:23:38;2.60;99.90
13322;DHT22;6730;46.248;6.930;2024-03-08T06:26:07;2.50;99.90
13322;DHT22;6730;46.248;6.930;2024-03-08T06:28:33;2.60;99.90
13322;DHT22;6730;46.248;6.930;2024-03-08T06:31:00;2.90;99.90
13322;DHT22;6730;46.248;6.930;2024-03-08T06:33:26;3.00;99.90
13322;DHT22;6730;46.248;6.930;2024-03-08T06:35:53;3.10;99.90
13322;DHT22;6730;46.248;6.930;2024-03-08T06:38:20;3.10;99.90
13322;DHT22;6730;46.248;6.930;2024-03-08T06:40:46;3.30;99.90
13322;DHT22;6730;46.248;6.930;2024-03-08T06:43:14;3.30;99.90
13322;DHT22;6730;46.248;6.930;2024-03-08T06:45:42;3.30;99.90
13322;DHT22;6730;46.248;6.930;2024-03-08T06:48:16;3.40;99.90
13322;DHT22;6730;46.248;6.930;2024-03-08T06:50:43;3.50;99.90
13322;DHT22;6730;46.248;6.930;2024-03-08T06:53:10;3.40;99.90
13322;DHT22;6730;46.248;6.930;2024-03-08T06:55:36;3.50;99.90
13322;DHT22;6730;46.248;6.930;2024-03-08T06:58:02;3.70;99.90
13322;DHT22;6730;46.248;6.930;2024-03-08T07:00:27;4.20;99.90
13322;DHT22;6730;46.248;6.930;2024-03-08T07:02:56;5.00;99.90
13322;DHT22;6730;46.248;6.930;2024-03-08T07:05:23;5.80;99.90
13322;DHT22;6730;46.248;6.930;2024-03-08T07:07:50;6.30;99.90
13322;DHT22;6730;46.248;6.930;2024-03-08T07:10:16;6.60;99.90
13322;DHT22;6730;46.248;6.930;2024-03-08T07:12:42;7.00;99.90
13322;DHT22;6730;46.248;6.930;2024-03-08T07:15:08;7.60;99.90
13322;DHT22;6730;46.248;6.930;2024-03-08T07:17:39;7.90;99.90
13322;DHT22;6730;46.248;6.930;2024-03-08T07:20:06;8.40;99.90
13322;DHT22;6730;46.248;6.930;2024-03-08T07:22:36;8.90;99.90
13322;DHT22;6730;46.248;6.930;2024-03-08T07:25:02;8.90;99.90
13322;DHT22;6730;46.248;6.930;2024-03-08T07:27:30;9.40;99.90
13322;DHT22;6730;46.248;6.930;2024-03-08T07:29:56;9.70;99.90
13322;DHT22;6730;46.248;6.930;2024-03-08T07:32:23;9.70;99.90
13322;DHT22;6730;46.248;6.930;2024-03-08T07:34:51;9.60;99.90
13322;DHT22;6730;46.248;6.930;2024-03-08T07:37:17;9.80;99.90
13322;DHT22;6730;46.248;6.930;2024-03-08T07:39:44;9.40;99.90
13322;DHT22;6730;46.248;6.930;2024-03-08T07:42:10;10.10;99.90
13322;DHT22;6730;46.248;6.930;2024-03-08T07:44:38;10.80;99.90
13322;DHT22;6730;46.248;6.930;2024-03-08T07:47:03;10.90;99.10
13322;DHT22;6730;46.248;6.930;2024-03-08T07:49:29;10.50;98.20
13322;DHT22;6730;46.248;6.930;2024-03-08T07:51:56;10.40;99.90
13322;DHT22;6730;46.248;6.930;2024-03-08T07:54:22;10.90;99.90
13322;DHT22;6730;46.248;6.930;2024-03-08T07:56:47;11.30;98.70
13322;DHT22;6730;46.248;6.930;2024-03-08T07:59:13;10.40;99.00
13322;DHT22;6730;46.248;6.930;2024-03-08T08:01:39;10.10;99.90
13322;DHT22;6730;46.248;6.930;2024-03-08T08:04:04;11.00;99.60
13322;DHT22;6730;46.248;6.930;2024-03-08T08:06:30;11.50;99.50
13322;DHT22;6730;46.248;6.930;2024-03-08T08:08:59;11.60;97.70
13322;DHT22;6730;46.248;6.930;2024-03-08T08:11:28;11.50;99.30
13322;DHT22;6730;46.248;6.930;2024-03-08T08:13:54;10.90;99.90
13322;DHT22;6730;46.248;6.930;2024-03-08T08:16:26;11.20;99.70
13322;DHT22;6730;46.248;6.930;2024-03-08T08:18:51;12.40;99.90
13322;DHT22;6730;46.248;6.930;2024-03-08T08:21:21;13.20;98.10
13322;DHT22;6730;46.248;6.930;2024-03-08T08:23:47;12.80;97.60
13322;DHT22;6730;46.248;6.930;2024-03-08T08:26:13;11.80;96.70
13322;DHT22;6730;46.248;6.930;2024-03-08T08:28:39;11.30;97.90
13322;DHT22;6730;46.248;6.930;2024-03-08T08:31:06;11.90;97.50
13322;DHT22;6730;46.248;6.930;2024-03-08T08:33:33;12.20;97.80
13322;DHT22;6730;46.248;6.930;2024-03-08T08:36:00;12.30;95.70
13322;DHT22;6730;46.248;6.930;2024-03-08T08:38:25;11.80;97.60
13322;DHT22;6730;46.248;6.930;2024-03-08T08:40:51;12.40;94.80
13322;DHT22;6730;46.248;6.930;2024-03-08T08:43:17;11.60;99.60
13322;DHT22;6730;46.248;6.930;2024-03-08T08:45:47;11.70;97.90
13322;DHT22;6730;46.248;6.930;2024-03-08T08:48:15;12.00;98.70
13322;DHT22;6730;46.248;6.930;2024-03-08T08:50:41;11.60;97.50
13322;DHT22;6730;46.248;6.930;2024-03-08T08:53:07;11.80;99.80
13322;DHT22;6730;46.248;6.930;2024-03-08T08:55:33;12.60;99.20
13322;DHT22;6730;46.248;6.930;2024-03-08T08:58:01;12.80;97.50
13322;DHT22;6730;46.248;6.930;2024-03-08T09:00:28;12.10;99.90
13322;DHT22;6730;46.248;6.930;2024-03-08T09:02:56;11.50;99.90
13322;DHT22;6730;46.248;6.930;2024-03-08T09:05:23;12.20;99.90
13322;DHT22;6730;46.248;6.930;2024-03-08T09:07:49;13.40;99.50
13322;DHT22;6730;46.248;6.930;2024-03-08T09:10:15;12.90;97.40
13322;DHT22;6730;46.248;6.930;2024-03-08T09:12:41;12.00;99.90
13322;DHT22;6730;46.248;6.930;2024-03-08T09:15:07;11.10;99.90
13322;DHT22;6730;46.248;6.930;2024-03-08T09:17:37;10.70;99.90
13322;DHT22;6730;46.248;6.930;2024-03-08T09:20:06;11.80;99.90
13322;DHT22;6730;46.248;6.930;2024-03-08T09:22:32;12.00;99.90
13322;DHT22;6730;46.248;6.930;2024-03-08T09:24:57;12.10;99.90
13322;DHT22;6730;46.248;6.930;2024-03-08T09:27:23;10.80;99.90
13322;DHT22;6730;46.248;6.930;2024-03-08T09:29:49;11.20;99.90
13322;DHT22;6730;46.248;6.930;2024-03-08T09:32:15;12.40;99.90
13322;DHT22;6730;46.248;6.930;2024-03-08T09:34:40;12.80;99.90
13322;DHT22;6730;46.248;6.930;2024-03-08T09:37:06;11.50;99.90
13322;DHT22;6730;46.248;6.930;2024-03-08T09:39:32;12.10;99.90
13322;DHT22;6730;46.248;6.930;2024-03-08T09:41:58;12.00;99.90
13322;DHT22;6730;46.248;6.930;2024-03-08T09:44:24;12.10;99.90
13322;DHT22;6730;46.248;6.930;2024-03-08T09:46:51;12.20;99.90
13322;DHT22;6730;46.248;6.930;2024-03-08T09:49:18;12.10;99.90
13322;DHT22;6730;46.248;6.930;2024-03-08T09:51:44;11.50;99.90
13322;DHT22;6730;46.248;6.930;2024-03-08T09:54:11;10.50;99.90
13322;DHT22;6730;46.248;6.930;2024-03-08T09:56:39;9.80;99.90
13322;DHT22;6730;46.248;6.930;2024-03-08T09:59:09;9.00;99.90
13322;DHT22;6730;46.248;6.930;2024-03-08T10:01:53;8.80;99.90
13322;DHT22;6730;46.248;6.930;2024-03-08T10:04:22;9.20;99.90
13322;DHT22;6730;46.248;6.930;2024-03-08T10:06:48;10.20;99.90
13322;DHT22;6730;46.248;6.930;2024-03-08T10:09:14;9.80;99.90
13322;DHT22;6730;46.248;6.930;2024-03-08T10:11:41;8.40;99.90
13322;DHT22;6730;46.248;6.930;2024-03-08T10:14:09;8.90;99.90
13322;DHT22;6730;46.248;6.930;2024-03-08T10:16:36;9.00;99.90
13322;DHT22;6730;46.248;6.930;2024-03-08T10:19:01;9.10;99.90
13322;DHT22;6730;46.248;6.930;2024-03-08T10:21:28;8.60;99.90
13322;DHT22;6730;46.248;6.930;2024-03-08T10:23:55;8.30;99.90
13322;DHT22;6730;46.248;6.930;2024-03-08T10:26:21;8.20;99.90
13322;DHT22;6730;46.248;6.930;2024-03-08T10:28:48;7.50;99.90
13322;DHT22;6730;46.248;6.930;2024-03-08T10:31:18;7.60;99.90
13322;DHT22;6730;46.248;6.930;2024-03-08T10:33:45;7.80;99.90
13322;DHT22;6730;46.248;6.930;2024-03-08T10:36:13;7.60;99.90
13322;DHT22;6730;46.248;6.930;2024-03-08T10:38:41;7.60;99.90
13322;DHT22;6730;46.248;6.930;2024-03-08T10:41:08;6.80;99.90
13322;DHT22;6730;46.248;6.930;2024-03-08T10:46:52;6.70;99.90
13322;DHT22;6730;46.248;6.930;2024-03-08T10:49:38;6.20;99.90
13322;DHT22;6730;46.248;6.930;2024-03-08T10:52:05;6.80;99.90
13322;DHT22;6730;46.248;6.930;2024-03-08T10:54:35;6.50;99.90
13322;DHT22;6730;46.248;6.930;2024-03-08T10:57:05;6.70;99.90
13322;DHT22;6730;46.248;6.930;2024-03-08T10:59:31;6.60;99.90
13322;DHT22;6730;46.248;6.930;2024-03-08T11:01:59;7.00;99.90
13322;DHT22;6730;46.248;6.930;2024-03-08T11:04:25;7.40;99.90
13322;DHT22;6730;46.248;6.930;2024-03-08T11:06:51;7.20;99.90
13322;DHT22;6730;46.248;6.930;2024-03-08T11:15:02;7.80;99.90
13322;DHT22;6730;46.248;6.930;2024-03-08T11:20:14;8.00;99.90
13322;DHT22;6730;46.248;6.930;2024-03-08T11:22:48;8.20;99.90
13322;DHT22;6730;46.248;6.930;2024-03-08T11:25:39;8.60;99.90
13322;DHT22;6730;46.248;6.930;2024-03-08T11:28:19;8.10;99.90
13322;DHT22;6730;46.248;6.930;2024-03-08T11:31:22;7.70;99.90
13322;DHT22;6730;46.248;6.930;2024-03-08T11:33:35;8.00;99.90
13322;DHT22;6730;46.248;6.930;2024-03-08T11:38:40;8.80;99.90
13322;DHT22;6730;46.248;6.930;2024-03-08T11:41:06;9.20;99.90
13322;DHT22;6730;46.248;6.930;2024-03-08T11:43:33;8.70;99.90
13322;DHT22;6730;46.248;6.930;2024-03-08T11:46:09;8.60;99.90
13322;DHT22;6730;46.248;6.930;2024-03-08T11:48:35;8.80;99.90
13322;DHT22;6730;46.248;6.930;2024-03-08T11:51:04;9.40;99.90
13322;DHT22;6730;46.248;6.930;2024-03-08T11:53:30;9.60;99.90
13322;DHT22;6730;46.248;6.930;2024-03-08T11:56:13;9.20;99.90
13322;DHT22;6730;46.248;6.930;2024-03-08T11:58:40;9.50;99.90
13322;DHT22;6730;46.248;6.930;2024-03-08T12:01:10;9.40;99.90
13322;DHT22;6730;46.248;6.930;2024-03-08T12:03:42;9.20;99.90
13322;DHT22;6730;46.248;6.930;2024-03-08T12:06:09;9.50;99.90
13322;DHT22;6730;46.248;6.930;2024-03-08T12:08:37;9.50;99.90
13322;DHT22;6730;46.248;6.930;2024-03-08T12:11:07;9.90;99.90
13322;DHT22;6730;46.248;6.930;2024-03-08T12:13:35;10.50;99.90
13322;DHT22;6730;46.248;6.930;2024-03-08T12:16:04;10.80;99.90
13322;DHT22;6730;46.248;6.930;2024-03-08T12:18:38;10.70;99.90
13322;DHT22;6730;46.248;6.930;2024-03-08T12:21:07;10.90;99.90
13322;DHT22;6730;46.248;6.930;2024-03-08T12:23:37;11.00;99.90
13322;DHT22;6730;46.248;6.930;2024-03-08T12:26:15;11.20;99.90
13322;DHT22;6730;46.248;6.930;2024-03-08T12:28:42;11.50;99.90
13322;DHT22;6730;46.248;6.930;2024-03-08T12:31:13;11.50;99.90
13322;DHT22;6730;46.248;6.930;2024-03-08T12:33:54;11.70;99.90
13322;DHT22;6730;46.248;6.930;2024-03-08T12:36:22;10.50;99.90
13322;DHT22;6730;46.248;6.930;2024-03-08T12:38:47;10.80;99.90
13322;DHT22;6730;46.248;6.930;2024-03-08T12:41:20;11.00;99.90
13322;DHT22;6730;46.248;6.930;2024-03-08T12:43:47;11.60;99.90
13322;DHT22;6730;46.248;6.930;2024-03-08T12:46:23;11.80;99.90
13322;DHT22;6730;46.248;6.930;2024-03-08T12:48:52;11.80;99.90
13322;DHT22;6730;46.248;6.930;2024-03-08T12:51:20;11.50;99.90
13322;DHT22;6730;46.248;6.930;2024-03-08T12:53:46;11.80;99.70
13322;DHT22;6730;46.248;6.930;2024-03-08T12:56:13;11.80;99.90
13322;DHT22;6730;46.248;6.930;2024-03-08T12:58:39;11.70;99.90
13322;DHT22;6730;46.248;6.930;2024-03-08T13:01:06;10.90;99.90
13322;DHT22;6730;46.248;6.930;2024-03-08T13:03:34;11.00;99.90
13322;DHT22;6730;46.248;6.930;2024-03-08T13:06:06;11.20;99.90
13322;DHT22;6730;46.248;6.930;2024-03-08T13:08:37;10.90;99.90
13322;DHT22;6730;46.248;6.930;2024-03-08T13:11:05;10.60;99.90
13322;DHT22;6730;46.248;6.930;2024-03-08T13:13:30;10.90;99.90
13322;DHT22;6730;46.248;6.930;2024-03-08T13:15:56;10.90;99.90
13322;DHT22;6730;46.248;6.930;2024-03-08T13:18:25;10.90;97.70
13322;DHT22;6730;46.248;6.930;2024-03-08T13:20:50;11.00;98.60
13322;DHT22;6730;46.248;6.930;2024-03-08T13:23:17;11.00;97.10
13322;DHT22;6730;46.248;6.930;2024-03-08T13:25:43;10.80;96.90
13322;DHT22;6730;46.248;6.930;2024-03-08T13:28:09;11.00;94.50
13322;DHT22;6730;46.248;6.930;2024-03-08T13:30:36;11.40;96.10
13322;DHT22;6730;46.248;6.930;2024-03-08T13:33:02;11.70;95.60
13322;DHT22;6730;46.248;6.930;2024-03-08T13:35:32;11.90;95.50
13322;DHT22;6730;46.248;6.930;2024-03-08T13:38:00;11.80;95.40
13322;DHT22;6730;46.248;6.930;2024-03-08T13:40:29;11.70;95.80
13322;DHT22;6730;46.248;6.930;2024-03-08T13:42:56;11.70;94.90
13322;DHT22;6730;46.248;6.930;2024-03-08T13:45:22;11.70;95.50
13322;DHT22;6730;46.248;6.930;2024-03-08T13:47:50;11.60;95.70
13322;DHT22;6730;46.248;6.930;2024-03-08T13:50:19;11.50;94.70
13322;DHT22;6730;46.248;6.930;2024-03-08T13:52:50;11.30;93.60
13322;DHT22;6730;46.248;6.930;2024-03-08T13:55:20;11.60;93.40
13322;DHT22;6730;46.248;6.930;2024-03-08T13:57:48;11.70;92.00
13322;DHT22;6730;46.248;6.930;2024-03-08T14:00:14;11.60;93.70
13322;DHT22;6730;46.248;6.930;2024-03-08T14:02:40;11.60;92.70
13322;DHT22;6730;46.248;6.930;2024-03-08T14:05:09;11.60;91.70
13322;DHT22;6730;46.248;6.930;2024-03-08T14:07:36;11.70;90.70
13322;DHT22;6730;46.248;6.930;2024-03-08T14:10:02;11.70;91.70
13322;DHT22;6730;46.248;6.930;2024-03-08T14:12:28;11.80;91.10
13322;DHT22;6730;46.248;6.930;2024-03-08T14:14:55;11.90;89.50
13322;DHT22;6730;46.248;6.930;2024-03-08T14:17:25;12.00;90.20
13322;DHT22;6730;46.248;6.930;2024-03-08T14:19:52;11.90;90.30
13322;DHT22;6730;46.248;6.930;2024-03-08T14:22:18;11.80;90.10
13322;DHT22;6730;46.248;6.930;2024-03-08T14:24:44;11.70;90.70
13322;DHT22;6730;46.248;6.930;2024-03-08T14:27:10;11.70;90.00
13322;DHT22;6730;46.248;6.930;2024-03-08T14:29:37;11.70;89.30
13322;DHT22;6730;46.248;6.930;2024-03-08T14:32:07;11.80;89.00
13322;DHT22;6730;46.248;6.930;2024-03-08T14:34:33;11.80;90.10
13322;DHT22;6730;46.248;6.930;2024-03-08T14:37:00;11.90;88.00
13322;DHT22;6730;46.248;6.930;2024-03-08T14:39:26;11.80;88.90
13322;DHT22;6730;46.248;6.930;2024-03-08T14:41:57;11.90;89.50
13322;DHT22;6730;46.248;6.930;2024-03-08T14:44:23;11.90;88.80
13322;DHT22;6730;46.248;6.930;2024-03-08T14:46:58;12.00;87.30
13322;DHT22;6730;46.248;6.930;2024-03-08T14:49:24;12.00;87.70
13322;DHT22;6730;46.248;6.930;2024-03-08T14:51:51;12.10;89.40
13322;DHT22;6730;46.248;6.930;2024-03-08T14:54:17;12.10;87.10
13322;DHT22;6730;46.248;6.930;2024-03-08T14:56:48;12.10;88.50
13322;DHT22;6730;46.248;6.930;2024-03-08T14:59:16;12.00;88.60
13322;DHT22;6730;46.248;6.930;2024-03-08T15:01:42;11.90;88.40
13322;DHT22;6730;46.248;6.930;2024-03-08T15:04:09;11.80;87.80
13322;DHT22;6730;46.248;6.930;2024-03-08T15:06:39;11.80;88.90
13322;DHT22;6730;46.248;6.930;2024-03-08T15:09:05;11.80;89.60
13322;DHT22;6730;46.248;6.930;2024-03-08T15:11:40;11.90;87.20
13322;DHT22;6730;46.248;6.930;2024-03-08T15:14:06;11.90;89.30
13322;DHT22;6730;46.248;6.930;2024-03-08T15:16:40;11.90;87.70
13322;DHT22;6730;46.248;6.930;2024-03-08T15:19:07;12.00;85.80
13322;DHT22;6730;46.248;6.930;2024-03-08T15:21:33;12.10;87.30
13322;DHT22;6730;46.248;6.930;2024-03-08T15:24:00;12.00;87.80
13322;DHT22;6730;46.248;6.930;2024-03-08T15:26:28;12.00;86.50
13322;DHT22;6730;46.248;6.930;2024-03-08T15:28:55;12.00;86.70
13322;DHT22;6730;46.248;6.930;2024-03-08T15:31:22;11.80;86.60
13322;DHT22;6730;46.248;6.930;2024-03-08T15:33:50;11.80;87.70
13322;DHT22;6730;46.248;6.930;2024-03-08T15:36:37;11.80;86.60
13322;DHT22;6730;46.248;6.930;2024-03-08T15:39:02;11.80;86.70
13322;DHT22;6730;46.248;6.930;2024-03-08T15:41:28;11.80;87.30
13322;DHT22;6730;46.248;6.930;2024-03-08T15:43:55;11.90;86.10
13322;DHT22;6730;46.248;6.930;2024-03-08T15:46:21;11.90;85.80
13322;DHT22;6730;46.248;6.930;2024-03-08T15:48:48;11.80;87.40
13322;DHT22;6730;46.248;6.930;2024-03-08T15:51:14;11.70;86.50
13322;DHT22;6730;46.248;6.930;2024-03-08T15:53:43;11.80;85.50
13322;DHT22;6730;46.248;6.930;2024-03-08T15:56:10;11.90;84.80
13322;DHT22;6730;46.248;6.930;2024-03-08T15:58:36;11.80;84.60
13322;DHT22;6730;46.248;6.930;2024-03-08T16:01:02;11.90;84.10
13322;DHT22;6730;46.248;6.930;2024-03-08T16:03:34;11.80;84.40
13322;DHT22;6730;46.248;6.930;2024-03-08T16:05:59;12.00;84.60
13322;DHT22;6730;46.248;6.930;2024-03-08T16:08:25;11.70;84.50
13322;DHT22;6730;46.248;6.930;2024-03-08T16:10:52;11.80;85.50